sensor_id;sensor_type;location;lat;lon;timestamp;pressure;altitude;pressure_sealevel;temperature;humidity
45621;BME280;31345;51.522;10.702;2023-07-20T00:01:47;98767.69;;;16.71;100.00
45621;BME280;31345;51.522;10.702;2023-07-20T00:04:17;98768.69;;;16.70;100.00
45621;BME280;31345;51.522;10.702;2023-07-20T00:06:44;98760.38;;;16.65;100.00
45621;BME280;31345;51.522;10.702;2023-07-20T00:09:12;98762.88;;;16.66;100.00
45621;BME280;31345;51.522;10.702;2023-07-20T00:11:40;98761.56;;;16.52;100.00
45621;BME280;31345;51.522;10.702;2023-07-20T00:14:07;98765.06;;;16.43;100.00
45621;BME280;31345;51.522;10.702;2023-07-20T00:16:35;98759.22;;;16.49;100.00
45621;BME280;31345;51.522;10.702;2023-07-20T00:19:07;98748.38;;;16.52;100.00
45621;BME280;31345;51.522;10.702;2023-07-20T00:21:36;98748.53;;;16.51;100.00
45621;BME280;31345;51.522;10.702;2023-07-20T00:24:06;98740.28;;;16.54;100.00
45621;BME280;31345;51.522;10.702;2023-07-20T00:26:39;98737.06;;;16.60;100.00
45621;BME280;31345;51.522;10.702;2023-07-20T00:29:06;98737.50;;;16.55;100.00
45621;BME280;31345;51.522;10.702;2023-07-20T00:31:34;98734.84;;;16.55;100.00
45621;BME280;31345;51.522;10.702;2023-07-20T00:34:03;98735.56;;;16.57;100.00
45621;BME280;31345;51.522;10.702;2023-07-20T00:36:37;98728.31;;;16.59;100.00
45621;BME280;31345;51.522;10.702;2023-07-20T00:39:05;98727.34;;;16.61;100.00
45621;BME280;31345;51.522;10.702;2023-07-20T00:41:34;98727.50;;;16.59;100.00
45621;BME280;31345;51.522;10.702;2023-07-20T00:44:03;98728.72;;;16.65;100.00
45621;BME280;31345;51.522;10.702;2023-07-20T00:46:35;98736.47;;;16.66;100.00
45621;BME280;31345;51.522;10.702;2023-07-20T00:49:08;98735.91;;;16.44;100.00
45621;BME280;31345;51.522;10.702;2023-07-20T00:51:44;98745.09;;;16.40;100.00
45621;BME280;31345;51.522;10.702;2023-07-20T00:54:16;98747.06;;;16.38;100.00
45621;BME280;31345;51.522;10.702;2023-07-20T00:56:44;98745.44;;;16.27;100.00
45621;BME280;31345;51.522;10.702;2023-07-20T00:59:18;98750.38;;;16.40;100.00
45621;BME280;31345;51.522;10.702;2023-07-20T01:01:45;98757.72;;;16.46;100.00
45621;BME280;31345;51.522;10.702;2023-07-20T01:04:13;98750.09;;;16.43;100.00
45621;BME280;31345;51.522;10.702;2023-07-20T01:06:48;98751.22;;;16.41;100.00
45621;BME280;31345;51.522;10.702;2023-07-20T01:09:30;98755.31;;;16.53;100.00
45621;BME280;31345;51.522;10.702;2023-07-20T01:12:09;98754.03;;;16.57;100.00
45621;BME280;31345;51.522;10.702;2023-07-20T01:14:40;98760.28;;;16.56;100.00
45621;BME280;31345;51.522;10.702;2023-07-20T01:17:07;98758.09;;;16.52;100.00
45621;BME280;31345;51.522;10.702;2023-07-20T01:19:35;98756.53;;;16.59;100.00
45621;BME280;31345;51.522;10.702;2023-07-20T01:22:10;98770.25;;;16.63;100.00
45621;BME280;31345;51.522;10.702;2023-07-20T01:25:00;98778.84;;;16.65;100.00
45621;BME280;31345;51.522;10.702;2023-07-20T01:28:12;98777.03;;;16.65;100.00
45621;BME280;31345;51.522;10.702;2023-07-20T01:30:55;98769.94;;;16.66;100.00
45621;BME280;31345;51.522;10.702;2023-07-20T01:33:31;98788.44;;;16.66;100.00
45621;BME280;31345;51.522;10.702;2023-07-20T01:36:06;98792.41;;;16.52;100.00
45621;BME280;31345;51.522;10.702;2023-07-20T01:38:39;98773.72;;;16.35;100.00
45621;BME280;31345;51.522;10.702;2023-07-20T01:41:08;98772.50;;;16.29;100.00
45621;BME280;31345;51.522;10.702;2023-07-20T01:43:42;98773.00;;;15.95;100.00
45621;BME280;31345;51.522;10.702;2023-07-20T01:46:09;98768.47;;;15.87;100.00
45621;BME280;31345;51.522;10.702;2023-07-20T01:48:38;98764.88;;;15.78;100.00
45621;BME280;31345;51.522;10.702;2023-07-20T01:51:11;98750.47;;;15.73;100.00
45621;BME280;31345;51.522;10.702;2023-07-20T01:53:39;98751.31;;;15.63;100.00
45621;BME280;31345;51.522;10.702;2023-07-20T01:56:11;98750.09;;;15.58;100.00
45621;BME280;31345;51.522;10.702;2023-07-20T01:58:44;98749.69;;;15.52;100.00
45621;BME280;31345;51.522;10.702;2023-07-20T02:01:17;98751.91;;;15.47;100.00
45621;BME280;31345;51.522;10.702;2023-07-20T02:03:51;98756.63;;;15.43;100.00
45621;BME280;31345;51.522;10.702;2023-07-20T02:06:23;98757.88;;;15.39;100.00
45621;BME280;31345;51.522;10.702;2023-07-20T02:08:51;98760.66;;;15.38;100.00
45621;BME280;31345;51.522;10.702;2023-07-20T02:11:24;98759.25;;;15.43;100.00
45621;BME280;31345;51.522;10.702;2023-07-20T02:13:51;98753.47;;;15.40;100.00
45621;BME280;31345;51.522;10.702;2023-07-20T02:16:24;98754.41;;;15.39;100.00
45621;BME280;31345;51.522;10.702;2023-07-20T02:18:53;98764.16;;;15.19;100.00
45621;BME280;31345;51.522;10.702;2023-07-20T02:21:23;98763.16;;;15.20;100.00
45621;BME280;31345;51.522;10.702;2023-07-20T02:23:50;98772.03;;;15.28;100.00
45621;BME280;31345;51.522;10.702;2023-07-20T02:26:18;98768.84;;;15.25;100.00
45621;BME280;31345;51.522;10.702;2023-07-20T02:28:45;98768.69;;;15.26;100.00
45621;BME280;31345;51.522;10.702;2023-07-20T02:31:13;98768.44;;;15.29;100.00
45621;BME280;31345;51.522;10.702;2023-07-20T02:33:40;98770.78;;;15.23;100.00
45621;BME280;31345;51.522;10.702;2023-07-20T02:36:09;98774.09;;;15.25;100.00
45621;BME280;31345;51.522;10.702;2023-07-20T02:38:37;98778.13;;;15.09;100.00
45621;BME280;31345;51.522;10.702;2023-07-20T02:41:04;98768.69;;;15.26;100.00
45621;BME280;31345;51.522;10.702;2023-07-20T02:43:37;98759.41;;;15.22;100.00
45621;BME280;31345;51.522;10.702;2023-07-20T02:46:05;98764.00;;;15.20;100.00
45621;BME280;31345;51.522;10.702;2023-07-20T02:48:37;98755.41;;;15.28;100.00
45621;BME280;31345;51.522;10.702;2023-07-20T02:51:11;98752.91;;;15.26;100.00
45621;BME280;31345;51.522;10.702;2023-07-20T02:53:44;98757.34;;;15.16;100.00
45621;BME280;31345;51.522;10.702;2023-07-20T02:56:17;98755.13;;;15.21;100.00
45621;BME280;31345;51.522;10.702;2023-07-20T02:58:45;98759.69;;;15.09;100.00
45621;BME280;31345;51.522;10.702;2023-07-20T03:01:18;98761.91;;;15.14;100.00
45621;BME280;31345;51.522;10.702;2023-07-20T03:03:46;98765.94;;;15.28;100.00
45621;BME280;31345;51.522;10.702;2023-07-20T03:06:15;98770.94;;;15.31;100.00
45621;BME280;31345;51.522;10.702;2023-07-20T03:08:48;98763.72;;;15.23;100.00
45621;BME280;31345;51.522;10.702;2023-07-20T03:11:19;98768.84;;;15.25;100.00
45621;BME280;31345;51.522;10.702;2023-07-20T03:13:48;98772.19;;;15.27;100.00
45621;BME280;31345;51.522;10.702;2023-07-20T03:16:23;98778.00;;;15.21;100.00
45621;BME280;31345;51.522;10.702;2023-07-20T03:18:58;98772.72;;;15.21;100.00
45621;BME280;31345;51.522;10.702;2023-07-20T03:21:32;98781.59;;;15.20;100.00
45621;BME280;31345;51.522;10.702;2023-07-20T03:24:05;98782.44;;;15.20;100.00
45621;BME280;31345;51.522;10.702;2023-07-20T03:26:38;98782.31;;;15.02;100.00
45621;BME280;31345;51.522;10.702;2023-07-20T03:29:12;98778.56;;;15.04;100.00
45621;BME280;31345;51.522;10.702;2023-07-20T03:31:39;98770.66;;;15.04;100.00
45621;BME280;31345;51.522;10.702;2023-07-20T03:34:12;98763.16;;;15.10;100.00
45621;BME280;31345;51.522;10.702;2023-07-20T03:36:41;98765.94;;;15.18;100.00
45621;BME280;31345;51.522;10.702;2023-07-20T03:39:14;98767.03;;;15.15;100.00
45621;BME280;31345;51.522;10.702;2023-07-20T03:41:41;98765.09;;;15.17;100.00
45621;BME280;31345;51.522;10.702;2023-07-20T03:44:14;98769.81;;;15.14;100.00
45621;BME280;31345;51.522;10.702;2023-07-20T03:46:43;98772.03;;;15.19;100.00
45621;BME280;31345;51.522;10.702;2023-07-20T03:49:11;98771.19;;;15.18;100.00
45621;BME280;31345;51.522;10.702;2023-07-20T03:51:39;98776.59;;;15.16;100.00
45621;BME280;31345;51.522;10.702;2023-07-20T03:54:08;98779.09;;;15.18;100.00
45621;BME280;31345;51.522;10.702;2023-07-20T03:56:35;98777.31;;;15.28;100.00
45621;BME280;31345;51.522;10.702;2023-07-20T03:59:03;98767.59;;;15.29;100.00
45621;BME280;31345;51.522;10.702;2023-07-20T04:01:30;98771.47;;;15.25;100.00
45621;BME280;31345;51.522;10.702;2023-07-20T04:04:05;98769.53;;;15.37;100.00
45621;BME280;31345;51.522;10.702;2023-07-20T04:06:38;98773.28;;;15.44;100.00
45621;BME280;31345;51.522;10.702;2023-07-20T04:12:18;98784.22;;;15.39;100.00
45621;BME280;31345;51.522;10.702;2023-07-20T04:14:46;98785.47;;;15.35;100.00
45621;BME280;31345;51.522;10.702;2023-07-20T04:17:19;98777.84;;;15.32;100.00
45621;BME280;31345;51.522;10.702;2023-07-20T04:19:52;98780.06;;;15.37;100.00
45621;BME280;31345;51.522;10.702;2023-07-20T04:22:20;98777.16;;;15.40;100.00
45621;BME280;31345;51.522;10.702;2023-07-20T04:24:53;98764.66;;;15.42;100.00
45621;BME280;31345;51.522;10.702;2023-07-20T04:27:22;98773.94;;;15.46;100.00
45621;BME280;31345;51.522;10.702;2023-07-20T04:29:50;98778.25;;;15.37;100.00
45621;BME280;31345;51.522;10.702;2023-07-20T04:32:22;98775.22;;;15.42;100.00
45621;BME280;31345;51.522;10.702;2023-07-20T04:34:52;98774.09;;;15.45;100.00
45621;BME280;31345;51.522;10.702;2023-07-20T04:37:20;98777.16;;;15.50;100.00
45621;BME280;31345;51.522;10.702;2023-07-20T04:39:53;98784.63;;;15.45;100.00
45621;BME280;31345;51.522;10.702;2023-07-20T04:42:24;98782.56;;;15.48;100.00
45621;BME280;31345;51.522;10.702;2023-07-20T04:44:51;98795.44;;;15.51;100.00
45621;BME280;31345;51.522;10.702;2023-07-20T04:47:19;98798.06;;;15.51;100.00
45621;BME280;31345;51.522;10.702;2023-07-20T04:49:53;98787.53;;;15.51;100.00
45621;BME280;31345;51.522;10.702;2023-07-20T04:52:21;98788.09;;;15.55;100.00
45621;BME280;31345;51.522;10.702;2023-07-20T04:54:49;98795.41;;;15.61;100.00
45621;BME280;31345;51.522;10.702;2023-07-20T04:57:17;98800.28;;;15.56;100.00
45621;BME280;31345;51.522;10.702;2023-07-20T04:59:49;98798.19;;;15.60;100.00
45621;BME280;31345;51.522;10.702;2023-07-20T05:02:18;98807.22;;;15.67;100.00
45621;BME280;31345;51.522;10.702;2023-07-20T05:04:46;98808.72;;;15.69;100.00
45621;BME280;31345;51.522;10.702;2023-07-20T05:07:13;98805.81;;;15.73;100.00
45621;BME280;31345;51.522;10.702;2023-07-20T05:09:41;98812.59;;;15.75;100.00
45621;BME280;31345;51.522;10.702;2023-07-20T05:12:09;98807.06;;;15.78;100.00
45621;BME280;31345;51.522;10.702;2023-07-20T05:14:44;98799.97;;;15.79;100.00
45621;BME280;31345;51.522;10.702;2023-07-20T05:17:18;98813.28;;;15.87;100.00
45621;BME280;31345;51.522;10.702;2023-07-20T05:19:46;98800.91;;;15.88;100.00
45621;BME280;31345;51.522;10.702;2023-07-20T05:22:13;98801.06;;;15.96;100.00
45621;BME280;31345;51.522;10.702;2023-07-20T05:24:41;98801.31;;;16.03;100.00
45621;BME280;31345;51.522;10.702;2023-07-20T05:27:10;98809.19;;;16.13;100.00
45621;BME280;31345;51.522;10.702;2023-07-20T05:29:44;98803.81;;;16.04;100.00
45621;BME280;31345;51.522;10.702;2023-07-20T05:32:12;98802.41;;;16.10;100.00
45621;BME280;31345;51.522;10.702;2023-07-20T05:34:41;98812.38;;;16.16;100.00
45621;BME280;31345;51.522;10.702;2023-07-20T05:37:08;98805.69;;;16.22;100.00
45621;BME280;31345;51.522;10.702;2023-07-20T05:39:36;98812.47;;;16.35;100.00
45621;BME280;31345;51.522;10.702;2023-07-20T05:42:08;98804.41;;;16.36;100.00
45621;BME280;31345;51.522;10.702;2023-07-20T05:44:36;98797.44;;;16.45;100.00
45621;BME280;31345;51.522;10.702;2023-07-20T05:47:04;98795.47;;;16.47;100.00
45621;BME280;31345;51.522;10.702;2023-07-20T05:49:32;98799.31;;;16.53;100.00
45621;BME280;31345;51.522;10.702;2023-07-20T05:52:01;98800.69;;;16.57;100.00
45621;BME280;31345;51.522;10.702;2023-07-20T05:54:29;98798.06;;;16.57;100.00
45621;BME280;31345;51.522;10.702;2023-07-20T05:57:01;98803.19;;;16.58;100.00
45621;BME280;31345;51.522;10.702;2023-07-20T05:59:29;98814.28;;;16.62;100.00
45621;BME280;31345;51.522;10.702;2023-07-20T06:01:56;98810.81;;;16.62;100.00
45621;BME280;31345;51.522;10.702;2023-07-20T06:04:24;98808.56;;;16.67;100.00
45621;BME280;31345;51.522;10.702;2023-07-20T06:06:52;98809.91;;;16.71;100.00
45621;BME280;31345;51.522;10.702;2023-07-20T06:09:21;98800.88;;;16.74;100.00
45621;BME280;31345;51.522;10.702;2023-07-20T06:11:54;98802.69;;;16.73;100.00
45621;BME280;31345;51.522;10.702;2023-07-20T06:14:22;98804.44;;;16.82;100.00
45621;BME280;31345;51.522;10.702;2023-07-20T06:16:50;98803.16;;;16.87;100.00
45621;BME280;31345;51.522;10.702;2023-07-20T06:19:18;98801.31;;;16.97;100.00
45621;BME280;31345;51.522;10.702;2023-07-20T06:21:45;98807.56;;;16.96;100.00
45621;BME280;31345;51.522;10.702;2023-07-20T06:24:13;98804.03;;;17.05;100.00
45621;BME280;31345;51.522;10.702;2023-07-20T06:26:47;98804.16;;;17.04;100.00
45621;BME280;31345;51.522;10.702;2023-07-20T06:29:14;98797.44;;;16.91;100.00
45621;BME280;31345;51.522;10.702;2023-07-20T06:31:48;98803.38;;;16.93;100.00
45621;BME280;31345;51.522;10.702;2023-07-20T06:34:20;98798.19;;;17.02;100.00
45621;BME280;31345;51.522;10.702;2023-07-20T06:36:48;98798.44;;;17.27;100.00
45621;BME280;31345;51.522;10.702;2023-07-20T06:39:20;98798.13;;;17.30;100.00
45621;BME280;31345;51.522;10.702;2023-07-20T06:41:50;98794.38;;;17.51;100.00
45621;BME280;31345;51.522;10.702;2023-07-20T06:44:17;98789.00;;;17.60;100.00
45621;BME280;31345;51.522;10.702;2023-07-20T06:46:50;98794.75;;;17.82;100.00
45621;BME280;31345;51.522;10.702;2023-07-20T06:49:26;98792.72;;;18.03;100.00
45621;BME280;31345;51.522;10.702;2023-07-20T06:51:58;98798.19;;;18.01;100.00
45621;BME280;31345;51.522;10.702;2023-07-20T06:54:31;98796.94;;;17.87;100.00
45621;BME280;31345;51.522;10.702;2023-07-20T06:57:00;98796.44;;;17.92;100.00
45621;BME280;31345;51.522;10.702;2023-07-20T06:59:28;98802.22;;;17.87;100.00
45621;BME280;31345;51.522;10.702;2023-07-20T07:01:55;98796.19;;;17.77;100.00
45621;BME280;31345;51.522;10.702;2023-07-20T07:04:28;98801.53;;;17.58;100.00
45621;BME280;31345;51.522;10.702;2023-07-20T07:07:02;98804.31;;;17.57;100.00
45621;BME280;31345;51.522;10.702;2023-07-20T07:09:36;98803.59;;;17.46;100.00
45621;BME280;31345;51.522;10.702;2023-07-20T07:12:07;98804.31;;;17.39;100.00
45621;BME280;31345;51.522;10.702;2023-07-20T07:14:35;98810.88;;;17.34;100.00
45621;BME280;31345;51.522;10.702;2023-07-20T07:17:03;98807.50;;;17.24;100.00
45621;BME280;31345;51.522;10.702;2023-07-20T07:19:30;98820.00;;;17.40;100.00
45621;BME280;31345;51.522;10.702;2023-07-20T07:21:58;98809.09;;;17.53;100.00
45621;BME280;31345;51.522;10.702;2023-07-20T07:24:31;98810.19;;;17.69;100.00
45621;BME280;31345;51.522;10.702;2023-07-20T07:27:01;98801.88;;;17.64;100.00
45621;BME280;31345;51.522;10.702;2023-07-20T07:29:31;98811.78;;;17.61;100.00
45621;BME280;31345;51.522;10.702;2023-07-20T07:31:59;98814.69;;;17.50;100.00
45621;BME280;31345;51.522;10.702;2023-07-20T07:34:32;98812.84;;;17.32;100.00
45621;BME280;31345;51.522;10.702;2023-07-20T07:37:00;98813.88;;;17.40;100.00
45621;BME280;31345;51.522;10.702;2023-07-20T07:39:28;98812.16;;;17.30;100.00
45621;BME280;31345;51.522;10.702;2023-07-20T07:41:56;98821.91;;;17.30;100.00
45621;BME280;31345;51.522;10.702;2023-07-20T07:44:30;98828.09;;;17.20;100.00
45621;BME280;31345;51.522;10.702;2023-07-20T07:46:58;98837.50;;;17.05;100.00
45621;BME280;31345;51.522;10.702;2023-07-20T07:49:27;98840.34;;;16.93;100.00
45621;BME280;31345;51.522;10.702;2023-07-20T07:51:55;98838.75;;;16.82;100.00
45621;BME280;31345;51.522;10.702;2023-07-20T07:54:23;98843.91;;;16.56;100.00
45621;BME280;31345;51.522;10.702;2023-07-20T07:56:50;98834.19;;;16.56;100.00
45621;BME280;31345;51.522;10.702;2023-07-20T07:59:18;98840.69;;;16.62;100.00
45621;BME280;31345;51.522;10.702;2023-07-20T08:01:52;98844.94;;;16.73;100.00
45621;BME280;31345;51.522;10.702;2023-07-20T08:04:26;98847.53;;;16.83;100.00
45621;BME280;31345;51.522;10.702;2023-07-20T08:06:59;98839.00;;;16.89;100.00
45621;BME280;31345;51.522;10.702;2023-07-20T08:09:27;98843.09;;;17.02;100.00
45621;BME280;31345;51.522;10.702;2023-07-20T08:11:54;98839.94;;;17.16;100.00
45621;BME280;31345;51.522;10.702;2023-07-20T08:14:27;98843.94;;;17.39;100.00
45621;BME280;31345;51.522;10.702;2023-07-20T08:16:56;98834.31;;;17.47;100.00
45621;BME280;31345;51.522;10.702;2023-07-20T08:19:24;98841.16;;;17.40;100.00
45621;BME280;31345;51.522;10.702;2023-07-20T08:21:52;98842.44;;;17.36;100.00
45621;BME280;31345;51.522;10.702;2023-07-20T08:24:19;98844.31;;;17.26;100.00
45621;BME280;31345;51.522;10.702;2023-07-20T08:26:52;98844.03;;;17.29;100.00
45621;BME280;31345;51.522;10.702;2023-07-20T08:29:20;98848.16;;;17.31;100.00
45621;BME280;31345;51.522;10.702;2023-07-20T08:31:53;98853.84;;;17.36;100.00
45621;BME280;31345;51.522;10.702;2023-07-20T08:34:22;98850.59;;;17.43;100.00
45621;BME280;31345;51.522;10.702;2023-07-20T08:36:50;98861.59;;;17.48;100.00
45621;BME280;31345;51.522;10.702;2023-07-20T08:39:18;98858.63;;;17.51;100.00
45621;BME280;31345;51.522;10.702;2023-07-20T08:41:46;98851.59;;;17.60;100.00
45621;BME280;31345;51.522;10.702;2023-07-20T08:44:14;98852.28;;;17.62;100.00
45621;BME280;31345;51.522;10.702;2023-07-20T08:46:42;98856.66;;;17.71;100.00
45621;BME280;31345;51.522;10.702;2023-07-20T08:49:11;98869.72;;;17.73;100.00
45621;BME280;31345;51.522;10.702;2023-07-20T08:51:41;98861.78;;;17.73;100.00
45621;BME280;31345;51.522;10.702;2023-07-20T08:54:10;98866.03;;;17.66;100.00
45621;BME280;31345;51.522;10.702;2023-07-20T08:56:40;98861.47;;;17.58;100.00
45621;BME280;31345;51.522;10.702;2023-07-20T08:59:08;98865.94;;;17.39;100.00
45621;BME280;31345;51.522;10.702;2023-07-20T09:01:38;98869.66;;;17.46;100.00
45621;BME280;31345;51.522;10.702;2023-07-20T09:04:11;98876.31;;;17.51;100.00
45621;BME280;31345;51.522;10.702;2023-07-20T09:06:45;98877.25;;;17.49;100.00
45621;BME280;31345;51.522;10.702;2023-07-20T09:09:14;98868.53;;;17.49;100.00
45621;BME280;31345;51.522;10.702;2023-07-20T09:11:41;98870.63;;;17.64;100.00
45621;BME280;31345;51.522;10.702;2023-07-20T09:14:14;98877.72;;;17.81;100.00
45621;BME280;31345;51.522;10.702;2023-07-20T09:16:47;98867.00;;;17.83;100.00
45621;BME280;31345;51.522;10.702;2023-07-20T09:19:21;98875.13;;;17.90;100.00
45621;BME280;31345;51.522;10.702;2023-07-20T09:21:55;98875.94;;;18.08;100.00
45621;BME280;31345;51.522;10.702;2023-07-20T09:24:23;98875.28;;;18.14;100.00
45621;BME280;31345;51.522;10.702;2023-07-20T09:26:51;98879.97;;;18.21;100.00
45621;BME280;31345;51.522;10.702;2023-07-20T09:29:24;98878.94;;;18.13;100.00
45621;BME280;31345;51.522;10.702;2023-07-20T09:32:01;98883.66;;;18.28;100.00
45621;BME280;31345;51.522;10.702;2023-07-20T09:34:34;98886.06;;;18.21;100.00
45621;BME280;31345;51.522;10.702;2023-07-20T09:37:08;98886.97;;;18.04;100.00
45621;BME280;31345;51.522;10.702;2023-07-20T09:39:44;98885.03;;;18.14;100.00
45621;BME280;31345;51.522;10.702;2023-07-20T09:42:17;98890.75;;;18.27;100.00
45621;BME280;31345;51.522;10.702;2023-07-20T09:44:50;98892.09;;;18.32;100.00
45621;BME280;31345;51.522;10.702;2023-07-20T09:47:23;98898.59;;;18.37;100.00
45621;BME280;31345;51.522;10.702;2023-07-20T09:49:58;98895.75;;;18.31;100.00
45621;BME280;31345;51.522;10.702;2023-07-20T09:52:29;98899.84;;;18.25;100.00
45621;BME280;31345;51.522;10.702;2023-07-20T09:54:57;98902.78;;;18.22;100.00
45621;BME280;31345;51.522;10.702;2023-07-20T09:57:26;98907.47;;;18.28;100.00
45621;BME280;31345;51.522;10.702;2023-07-20T09:59:58;98905.69;;;18.37;100.00
45621;BME280;31345;51.522;10.702;2023-07-20T10:02:32;98912.88;;;18.45;100.00
45621;BME280;31345;51.522;10.702;2023-07-20T10:05:02;98904.97;;;18.53;100.00
45621;BME280;31345;51.522;10.702;2023-07-20T10:07:43;98907.19;;;18.66;100.00
45621;BME280;31345;51.522;10.702;2023-07-20T10:10:11;98914.72;;;18.79;100.00
45621;BME280;31345;51.522;10.702;2023-07-20T10:12:41;98909.69;;;18.68;98.39
45621;BME280;31345;51.522;10.702;2023-07-20T10:15:12;98911.72;;;18.74;98.19
45621;BME280;31345;51.522;10.702;2023-07-20T10:17:48;98911.56;;;18.75;99.99
45621;BME280;31345;51.522;10.702;2023-07-20T10:20:22;98911.56;;;18.75;98.42
45621;BME280;31345;51.522;10.702;2023-07-20T10:22:53;98911.66;;;19.00;99.52
45621;BME280;31345;51.522;10.702;2023-07-20T10:25:22;98910.31;;;18.96;96.47
45621;BME280;31345;51.522;10.702;2023-07-20T10:27:50;98910.03;;;19.16;98.31
45621;BME280;31345;51.522;10.702;2023-07-20T10:30:18;98899.97;;;19.28;94.06
45621;BME280;31345;51.522;10.702;2023-07-20T10:32:52;98915.97;;;19.10;93.55
45621;BME280;31345;51.522;10.702;2023-07-20T10:35:20;98910.19;;;19.06;93.82
45621;BME280;31345;51.522;10.702;2023-07-20T10:37:53;98922.44;;;19.07;94.57
45621;BME280;31345;51.522;10.702;2023-07-20T10:40:30;98916.28;;;18.98;92.20
45621;BME280;31345;51.522;10.702;2023-07-20T10:43:04;98923.47;;;19.14;94.64
45621;BME280;31345;51.522;10.702;2023-07-20T10:45:39;98914.31;;;19.09;92.86
45621;BME280;31345;51.522;10.702;2023-07-20T10:48:16;98915.31;;;19.08;90.87
45621;BME280;31345;51.522;10.702;2023-07-20T10:51:10;98924.94;;;19.17;93.10
45621;BME280;31345;51.522;10.702;2023-07-20T10:53:45;98915.53;;;19.23;90.74
45621;BME280;31345;51.522;10.702;2023-07-20T10:56:20;98909.94;;;19.34;88.55
45621;BME280;31345;51.522;10.702;2023-07-20T10:58:57;98919.19;;;19.30;87.45
45621;BME280;31345;51.522;10.702;2023-07-20T11:01:28;98911.16;;;19.81;90.98
45621;BME280;31345;51.522;10.702;2023-07-20T11:03:58;98907.19;;;20.11;85.84
45621;BME280;31345;51.522;10.702;2023-07-20T11:06:36;98899.47;;;20.49;84.02
45621;BME280;31345;51.522;10.702;2023-07-20T11:09:10;98896.91;;;20.81;83.80
45621;BME280;31345;51.522;10.702;2023-07-20T11:11:42;98895.88;;;20.90;84.38
45621;BME280;31345;51.522;10.702;2023-07-20T11:14:21;98890.97;;;20.70;82.89
45621;BME280;31345;51.522;10.702;2023-07-20T11:16:53;98884.22;;;20.43;76.67
45621;BME280;31345;51.522;10.702;2023-07-20T11:19:26;98888.22;;;20.39;78.62
45621;BME280;31345;51.522;10.702;2023-07-20T11:21:55;98885.75;;;20.86;75.45
45621;BME280;31345;51.522;10.702;2023-07-20T11:24:24;98881.44;;;20.84;76.23
45621;BME280;31345;51.522;10.702;2023-07-20T11:26:57;98895.81;;;20.67;76.96
45621;BME280;31345;51.522;10.702;2023-07-20T11:29:24;98889.91;;;20.80;73.56
45621;BME280;31345;51.522;10.702;2023-07-20T11:31:53;98892.34;;;20.58;78.63
45621;BME280;31345;51.522;10.702;2023-07-20T11:34:21;98882.44;;;20.27;74.66
45621;BME280;31345;51.522;10.702;2023-07-20T11:36:49;98897.03;;;20.23;79.24
45621;BME280;31345;51.522;10.702;2023-07-20T11:39:24;98897.72;;;20.81;81.12
45621;BME280;31345;51.522;10.702;2023-07-20T11:41:57;98898.38;;;21.15;77.03
45621;BME280;31345;51.522;10.702;2023-07-20T11:44:27;98902.75;;;21.08;72.28
45621;BME280;31345;51.522;10.702;2023-07-20T11:47:01;98891.09;;;21.17;65.66
45621;BME280;31345;51.522;10.702;2023-07-20T11:49:30;98897.94;;;20.71;66.27
45621;BME280;31345;51.522;10.702;2023-07-20T11:52:03;98890.22;;;20.93;64.40
45621;BME280;31345;51.522;10.702;2023-07-20T11:54:33;98901.22;;;21.14;64.88
45621;BME280;31345;51.522;10.702;2023-07-20T11:57:01;98914.84;;;21.19;67.96
45621;BME280;31345;51.522;10.702;2023-07-20T11:59:29;98905.53;;;20.83;66.68
45621;BME280;31345;51.522;10.702;2023-07-20T12:01:58;98900.81;;;20.45;65.51
45621;BME280;31345;51.522;10.702;2023-07-20T12:04:26;98900.03;;;20.19;68.91
45621;BME280;31345;51.522;10.702;2023-07-20T12:06:53;98896.72;;;20.26;68.90
45621;BME280;31345;51.522;10.702;2023-07-20T12:09:21;98899.59;;;20.64;64.98
45621;BME280;31345;51.522;10.702;2023-07-20T12:11:50;98890.28;;;21.08;65.21
45621;BME280;31345;51.522;10.702;2023-07-20T12:14:25;98884.47;;;21.37;65.69
45621;BME280;31345;51.522;10.702;2023-07-20T12:16:58;98883.69;;;21.59;67.01
45621;BME280;31345;51.522;10.702;2023-07-20T12:19:30;98885.09;;;21.70;65.52
45621;BME280;31345;51.522;10.702;2023-07-20T12:21:59;98881.84;;;21.83;66.49
45621;BME280;31345;51.522;10.702;2023-07-20T12:24:27;98881.16;;;22.05;58.58
45621;BME280;31345;51.522;10.702;2023-07-20T12:26:58;98881.75;;;21.92;66.25
45621;BME280;31345;51.522;10.702;2023-07-20T12:29:25;98876.59;;;22.29;59.76
45621;BME280;31345;51.522;10.702;2023-07-20T12:31:53;98881.59;;;22.47;60.48
45621;BME280;31345;51.522;10.702;2023-07-20T12:34:20;98871.81;;;22.39;59.52
45621;BME280;31345;51.522;10.702;2023-07-20T12:36:48;98882.72;;;22.29;60.25
45621;BME280;31345;51.522;10.702;2023-07-20T12:39:15;98879.78;;;22.24;55.92
45621;BME280;31345;51.522;10.702;2023-07-20T12:41:43;98880.84;;;22.38;56.99
45621;BME280;31345;51.522;10.702;2023-07-20T12:44:12;98872.44;;;22.26;56.05
45621;BME280;31345;51.522;10.702;2023-07-20T12:46:39;98874.41;;;22.47;55.96
45621;BME280;31345;51.522;10.702;2023-07-20T12:49:12;98875.97;;;22.57;54.59
45621;BME280;31345;51.522;10.702;2023-07-20T12:51:40;98880.19;;;22.51;55.50
45621;BME280;31345;51.522;10.702;2023-07-20T12:54:08;98865.63;;;22.84;55.64
45621;BME280;31345;51.522;10.702;2023-07-20T12:56:35;98868.25;;;22.47;53.68
45621;BME280;31345;51.522;10.702;2023-07-20T12:59:03;98868.50;;;22.67;54.34
45621;BME280;31345;51.522;10.702;2023-07-20T13:01:38;98855.31;;;22.44;49.74
45621;BME280;31345;51.522;10.702;2023-07-20T13:04:12;98871.28;;;22.59;54.28